createdAt,value
2022-07-31T00:00:04.728Z,26.19
2022-07-31T00:02:39.207Z,26.19
2022-07-31T00:05:07.011Z,26.20
2022-07-31T00:07:33.585Z,26.19
2022-07-31T00:10:00.174Z,26.19
2022-07-31T00:12:26.783Z,26.19
2022-07-31T00:14:53.529Z,26.14
2022-07-31T00:17:20.184Z,26.21
2022-07-31T00:19:47.180Z,26.18
2022-07-31T00:22:16.023Z,26.18
2022-07-31T00:24:42.610Z,26.18
2022-07-31T00:27:10.816Z,26.15
2022-07-31T00:29:38.593Z,26.18
2022-07-31T00:32:05.802Z,26.18
2022-07-31T00:37:01.423Z,26.19
2022-07-31T00:39:28.225Z,26.18
2022-07-31T00:41:55.127Z,26.18
2022-07-31T00:44:22.007Z,26.18
2022-07-31T00:46:49.799Z,26.18
2022-07-31T00:49:16.515Z,26.18
2022-07-31T00:51:43.209Z,26.18
2022-07-31T00:54:10.420Z,26.17
2022-07-31T00:56:44.084Z,26.17
2022-07-31T00:59:10.660Z,26.16
2022-07-31T01:01:37.315Z,26.16
2022-07-31T01:04:04.027Z,26.17
2022-07-31T01:06:30.697Z,26.17
2022-07-31T01:08:57.618Z,26.16
2022-07-31T01:11:44.764Z,26.17
2022-07-31T01:14:12.684Z,26.16
2022-07-31T01:16:43.001Z,26.16
2022-07-31T01:19:39.825Z,26.17
2022-07-31T01:22:32.988Z,26.17
2022-07-31T01:25:11.709Z,26.16
2022-07-31T01:28:21.896Z,26.16
2022-07-31T01:31:10.692Z,26.15
2022-07-31T01:34:21.935Z,26.15
2022-07-31T01:36:58.291Z,26.15
2022-07-31T01:39:26.836Z,26.16
2022-07-31T01:42:04.054Z,26.14
2022-07-31T01:44:35.061Z,26.16
2022-07-31T01:47:03.631Z,26.14
2022-07-31T01:49:33.105Z,26.15
2022-07-31T01:52:04.718Z,26.15
2022-07-31T01:54:35.245Z,26.15
2022-07-31T01:57:04.076Z,26.15
2022-07-31T01:59:39.109Z,26.14
2022-07-31T02:02:19.395Z,26.09
2022-07-31T02:04:47.254Z,26.11
2022-07-31T02:07:15.511Z,26.14
2022-07-31T02:09:57.083Z,26.14
2022-07-31T02:12:33.757Z,26.07
2022-07-31T02:15:06.387Z,26.15
2022-07-31T02:17:35.100Z,26.13
2022-07-31T02:20:23.512Z,26.14
2022-07-31T02:22:54.309Z,26.05
2022-07-31T02:25:21.103Z,26.12
2022-07-31T02:27:57.784Z,26.14
2022-07-31T02:30:39.138Z,26.13
2022-07-31T02:33:12.836Z,26.13
2022-07-31T02:35:44.298Z,26.13
2022-07-31T02:38:22.167Z,26.14
2022-07-31T02:40:52.776Z,26.13
2022-07-31T02:43:20.504Z,26.13
2022-07-31T02:45:47.870Z,26.12
2022-07-31T02:48:14.839Z,26.12
2022-07-31T02:50:46.625Z,26.13
2022-07-31T02:53:13.486Z,26.05
2022-07-31T02:55:40.319Z,26.13
2022-07-31T02:58:07.203Z,26.12
2022-07-31T03:00:34.590Z,26.11
2022-07-31T03:03:02.050Z,26.12
2022-07-31T03:05:29.461Z,26.12
2022-07-31T03:07:56.648Z,26.11
2022-07-31T03:10:23.395Z,26.11
2022-07-31T03:13:04.057Z,26.11
2022-07-31T03:15:32.748Z,26.09
2022-07-31T03:18:00.743Z,26.11
2022-07-31T03:20:36.585Z,26.11
2022-07-31T03:23:04.277Z,26.12
2022-07-31T03:25:33.543Z,26.11
2022-07-31T03:28:00.544Z,26.12
2022-07-31T03:30:27.907Z,26.11
2022-07-31T03:32:57.440Z,26.11
2022-07-31T03:35:24.950Z,26.11
2022-07-31T03:37:52.282Z,26.11
2022-07-31T03:40:18.921Z,26.11
2022-07-31T03:42:47.640Z,26.11
2022-07-31T03:45:15.788Z,26.10
2022-07-31T03:47:42.760Z,26.10
2022-07-31T03:50:11.233Z,26.11
2022-07-31T03:52:38.623Z,26.11
2022-07-31T03:55:06.683Z,26.10
2022-07-31T03:57:34.882Z,26.09
2022-07-31T04:00:03.205Z,26.10
2022-07-31T04:02:32.726Z,26.10
2022-07-31T04:05:09.816Z,26.11
2022-07-31T04:07:38.255Z,26.10
2022-07-31T04:10:05.277Z,26.10
2022-07-31T04:12:32.157Z,26.10
2022-07-31T04:14:58.782Z,26.10
2022-07-31T04:17:25.921Z,26.10
2022-07-31T04:19:52.906Z,26.11
2022-07-31T04:22:19.547Z,26.10
2022-07-31T04:24:46.705Z,26.10
2022-07-31T04:27:48.819Z,26.10
2022-07-31T04:30:16.794Z,26.10
2022-07-31T04:32:44.516Z,26.10
2022-07-31T04:35:13.705Z,26.09
2022-07-31T04:37:40.655Z,26.10
2022-07-31T04:40:16.010Z,26.07
2022-07-31T04:42:42.583Z,26.11
2022-07-31T04:45:10.484Z,26.10
2022-07-31T04:47:38.185Z,26.09
2022-07-31T04:50:05.490Z,26.10
2022-07-31T04:52:32.758Z,26.10
2022-07-31T04:55:05.627Z,26.09
2022-07-31T04:57:32.462Z,26.08
2022-07-31T05:00:01.411Z,26.09
2022-07-31T05:02:33.005Z,26.09
2022-07-31T05:04:59.841Z,26.10
2022-07-31T05:07:32.190Z,26.09
2022-07-31T05:10:04.880Z,26.09
2022-07-31T05:12:31.645Z,26.09
2022-07-31T05:14:58.388Z,26.05
2022-07-31T05:17:25.584Z,26.10
2022-07-31T05:20:24.204Z,26.08
2022-07-31T05:23:11.879Z,26.09
2022-07-31T05:25:57.199Z,26.08
2022-07-31T05:28:29.754Z,26.00
2022-07-31T05:30:57.604Z,26.09
2022-07-31T05:33:24.272Z,26.09
2022-07-31T05:35:50.969Z,26.09
2022-07-31T05:38:17.895Z,26.09
2022-07-31T05:41:03.675Z,26.08
2022-07-31T05:43:53.272Z,26.08
2022-07-31T05:46:24.420Z,25.99
2022-07-31T05:48:52.346Z,26.07
2022-07-31T05:51:20.118Z,26.07
2022-07-31T05:53:47.729Z,26.07
2022-07-31T05:56:33.004Z,26.07
2022-07-31T05:59:00.821Z,26.07
2022-07-31T06:01:27.463Z,26.08
2022-07-31T06:03:54.185Z,26.08
2022-07-31T06:06:24.167Z,26.07
2022-07-31T06:08:50.987Z,26.08
2022-07-31T06:11:17.584Z,26.08
2022-07-31T06:13:44.257Z,26.08
2022-07-31T06:16:28.487Z,26.08
2022-07-31T06:18:56.443Z,26.07
2022-07-31T06:21:25.554Z,26.07
2022-07-31T06:23:54.176Z,26.07
2022-07-31T06:26:27.623Z,26.08
2022-07-31T06:28:54.634Z,26.08
2022-07-31T06:31:22.125Z,26.07
2022-07-31T06:33:52.735Z,26.08
2022-07-31T06:36:22.400Z,26.08
2022-07-31T06:38:59.450Z,26.08
2022-07-31T06:41:44.266Z,26.07
2022-07-31T06:44:35.106Z,26.07
2022-07-31T06:47:31.149Z,26.06
2022-07-31T06:50:18.049Z,26.06
2022-07-31T06:52:52.378Z,26.06
2022-07-31T06:55:19.288Z,26.06
2022-07-31T06:57:46.431Z,26.07
2022-07-31T07:00:19.754Z,26.03
2022-07-31T07:02:48.032Z,26.07
2022-07-31T07:05:15.145Z,26.06
2022-07-31T07:07:42.188Z,26.07
2022-07-31T07:10:09.400Z,26.05
2022-07-31T07:13:01.681Z,26.06
2022-07-31T07:15:32.928Z,26.07
2022-07-31T07:17:59.572Z,26.08
2022-07-31T07:20:35.245Z,26.06
2022-07-31T07:23:01.908Z,26.07
2022-07-31T07:25:36.889Z,26.07
2022-07-31T07:28:05.044Z,26.07
2022-07-31T07:30:31.716Z,26.07
2022-07-31T07:33:01.082Z,26.07
2022-07-31T07:35:33.787Z,26.06
2022-07-31T07:38:05.335Z,26.08
2022-07-31T07:40:32.836Z,26.07
2022-07-31T07:43:02.998Z,26.06
2022-07-31T07:45:31.296Z,26.07
2022-07-31T07:48:06.381Z,26.07
2022-07-31T07:50:54.283Z,26.07
2022-07-31T07:53:27.663Z,26.07
2022-07-31T07:56:13.052Z,26.07
2022-07-31T07:58:58.190Z,26.06
2022-07-31T08:01:43.414Z,26.06
2022-07-31T08:04:18.586Z,26.03
2022-07-31T08:06:46.313Z,26.07
2022-07-31T08:09:13.140Z,26.07
2022-07-31T08:11:58.267Z,26.06
2022-07-31T08:14:45.132Z,26.05
2022-07-31T08:17:30.713Z,26.02
2022-07-31T08:19:57.770Z,26.05
2022-07-31T08:22:24.417Z,26.06
2022-07-31T08:24:51.053Z,26.05
2022-07-31T08:27:40.532Z,25.97
2022-07-31T08:30:09.906Z,26.06
2022-07-31T08:32:38.544Z,26.05
2022-07-31T08:35:05.817Z,26.07
2022-07-31T08:38:01.147Z,26.04
2022-07-31T08:40:20.971Z,26.05
2022-07-31T08:42:47.767Z,26.06
2022-07-31T08:45:15.197Z,26.06
2022-07-31T08:47:59.836Z,25.97
2022-07-31T08:50:32.181Z,26.06
2022-07-31T08:53:02.723Z,26.00
2022-07-31T08:55:57.869Z,25.98
2022-07-31T08:58:29.677Z,26.07
2022-07-31T09:00:57.033Z,26.06
2022-07-31T09:03:23.856Z,26.05
2022-07-31T09:05:54.295Z,26.06
2022-07-31T09:08:21.401Z,26.06
2022-07-31T09:11:02.073Z,26.06
2022-07-31T09:13:30.402Z,26.06
2022-07-31T09:15:59.077Z,26.07
2022-07-31T09:18:27.145Z,26.07
2022-07-31T09:21:05.521Z,26.07
2022-07-31T09:23:32.960Z,26.07
2022-07-31T09:26:04.208Z,26.08
2022-07-31T09:28:42.719Z,26.07
2022-07-31T09:31:11.232Z,26.08
2022-07-31T09:33:58.453Z,26.08
2022-07-31T09:36:40.311Z,26.07
2022-07-31T09:39:27.827Z,26.08
2022-07-31T09:42:16.600Z,26.00
2022-07-31T09:45:03.814Z,26.07
2022-07-31T09:47:32.635Z,26.06
2022-07-31T09:50:05.097Z,26.07
2022-07-31T09:52:32.967Z,26.08
2022-07-31T09:55:15.588Z,26.07
2022-07-31T09:57:58.372Z,26.08
2022-07-31T10:00:29.109Z,26.08
2022-07-31T10:02:57.049Z,26.08
2022-07-31T10:05:27.241Z,26.09
2022-07-31T10:08:00.242Z,26.08
2022-07-31T10:13:08.473Z,26.08
2022-07-31T10:15:37.321Z,26.09
2022-07-31T10:18:36.494Z,25.67
2022-07-31T10:21:18.040Z,26.09
2022-07-31T10:23:53.381Z,26.09
2022-07-31T10:26:21.412Z,26.09
2022-07-31T10:28:49.481Z,26.10
2022-07-31T10:31:16.743Z,26.10
2022-07-31T10:33:45.805Z,26.08
2022-07-31T10:36:40.996Z,26.12
2022-07-31T10:39:35.993Z,26.12
2022-07-31T10:42:37.803Z,26.10
2022-07-31T10:45:10.245Z,26.10
2022-07-31T10:48:05.352Z,26.10
2022-07-31T10:51:05.017Z,26.01
2022-07-31T10:53:58.793Z,26.10
2022-07-31T10:56:46.161Z,26.09
2022-07-31T10:59:31.442Z,26.10
2022-07-31T11:02:10.358Z,26.08
2022-07-31T11:04:43.727Z,26.10
2022-07-31T11:07:30.269Z,26.10
2022-07-31T11:10:09.779Z,26.09
2022-07-31T11:13:05.511Z,26.10
2022-07-31T11:16:05.265Z,26.09
2022-07-31T11:19:06.518Z,26.09
2022-07-31T11:21:42.269Z,26.10
2022-07-31T11:24:18.716Z,26.08
2022-07-31T11:26:55.863Z,26.09
2022-07-31T11:29:58.940Z,26.10
2022-07-31T11:32:25.511Z,26.09
2022-07-31T11:34:54.860Z,26.08
2022-07-31T11:37:25.870Z,26.10
2022-07-31T11:39:54.135Z,26.10
2022-07-31T11:42:27.294Z,26.10
2022-07-31T11:45:11.054Z,26.10
2022-07-31T11:48:12.039Z,26.04
2022-07-31T11:50:40.067Z,26.06
2022-07-31T11:53:07.113Z,26.10
2022-07-31T11:55:58.114Z,26.09
2022-07-31T11:58:26.573Z,26.11
2022-07-31T12:00:53.077Z,26.10
2022-07-31T12:03:22.687Z,26.10
2022-07-31T12:05:52.294Z,26.10
2022-07-31T12:08:19.636Z,26.02
2022-07-31T12:13:15.957Z,26.11
2022-07-31T12:16:00.556Z,26.10
2022-07-31T12:18:28.740Z,26.10
2022-07-31T12:21:05.596Z,26.10
2022-07-31T12:23:44.175Z,26.10
2022-07-31T12:26:13.365Z,26.11
2022-07-31T12:28:40.407Z,26.08
2022-07-31T12:31:07.109Z,26.10
2022-07-31T12:33:41.329Z,26.10
2022-07-31T12:36:16.295Z,26.08
2022-07-31T12:38:49.117Z,26.10
2022-07-31T12:41:16.816Z,26.10
2022-07-31T12:43:51.006Z,26.10
2022-07-31T12:46:35.895Z,26.11
2022-07-31T12:49:06.542Z,26.11
2022-07-31T12:51:45.284Z,26.11
2022-07-31T12:54:15.185Z,26.10
2022-07-31T12:56:42.747Z,26.10
2022-07-31T12:59:10.660Z,26.10
2022-07-31T13:01:38.129Z,26.06
2022-07-31T13:04:07.471Z,26.09
2022-07-31T13:06:36.079Z,26.11
2022-07-31T13:09:03.148Z,26.11
2022-07-31T13:11:46.415Z,26.11
2022-07-31T13:14:17.100Z,26.10
2022-07-31T13:16:49.644Z,26.10
2022-07-31T13:19:18.545Z,26.10
2022-07-31T13:21:49.620Z,26.10
2022-07-31T13:24:18.802Z,26.10
2022-07-31T13:26:45.749Z,26.10
2022-07-31T13:31:27.800Z,26.10
2022-07-31T13:33:54.400Z,26.09
2022-07-31T13:36:20.994Z,26.09
2022-07-31T13:38:49.804Z,26.09
2022-07-31T13:41:27.769Z,25.99
2022-07-31T13:43:59.851Z,26.08
2022-07-31T13:46:28.577Z,26.08
2022-07-31T13:48:57.551Z,26.08
2022-07-31T13:51:28.946Z,26.08
2022-07-31T13:53:55.795Z,26.08
2022-07-31T13:56:39.024Z,26.08
2022-07-31T13:59:09.349Z,26.07
2022-07-31T14:02:04.329Z,26.07
2022-07-31T14:04:23.833Z,26.08
2022-07-31T14:06:50.660Z,26.07
2022-07-31T14:09:18.577Z,26.07
2022-07-31T14:11:45.133Z,26.07
2022-07-31T14:14:12.562Z,26.06
2022-07-31T14:16:39.568Z,26.06
2022-07-31T14:19:06.223Z,26.06
2022-07-31T14:21:34.275Z,26.05
2022-07-31T14:24:00.890Z,26.07
2022-07-31T14:26:29.473Z,26.06
2022-07-31T14:28:56.269Z,26.06
2022-07-31T14:31:22.874Z,26.06
2022-07-31T14:33:49.484Z,26.06
2022-07-31T14:36:16.091Z,26.06
2022-07-31T14:38:42.715Z,26.05
2022-07-31T14:41:09.297Z,26.05
2022-07-31T14:43:36.200Z,26.05
2022-07-31T14:46:02.697Z,26.04
2022-07-31T14:48:29.239Z,26.04
2022-07-31T14:50:56.269Z,26.05
2022-07-31T14:53:24.415Z,26.03
2022-07-31T14:55:51.203Z,26.04
2022-07-31T14:58:21.368Z,26.04
2022-07-31T15:00:48.016Z,26.03
2022-07-31T15:03:14.667Z,26.03
2022-07-31T15:06:49.303Z,26.04
2022-07-31T15:08:28.417Z,26.04
2022-07-31T15:10:54.995Z,26.04
2022-07-31T15:13:21.620Z,26.04
2022-07-31T15:15:51.179Z,26.02
2022-07-31T15:18:18.982Z,26.03
2022-07-31T15:20:45.581Z,26.02
2022-07-31T15:23:12.469Z,26.03
2022-07-31T15:25:39.089Z,26.02
2022-07-31T15:28:05.805Z,26.02
2022-07-31T15:30:35.273Z,26.02
2022-07-31T15:33:01.920Z,26.02
2022-07-31T15:35:28.643Z,26.03
2022-07-31T15:37:55.196Z,26.02
2022-07-31T15:40:21.787Z,26.02
2022-07-31T15:42:49.024Z,26.00
2022-07-31T15:45:18.398Z,26.00
2022-07-31T15:47:46.161Z,26.02
2022-07-31T15:50:15.314Z,26.01
2022-07-31T15:52:42.623Z,26.01
2022-07-31T15:55:10.105Z,26.01
2022-07-31T15:57:36.701Z,26.01
2022-07-31T16:00:05.993Z,26.01
2022-07-31T16:02:38.247Z,25.99
2022-07-31T16:05:11.333Z,26.01
2022-07-31T16:08:31.905Z,26.01
2022-07-31T16:10:33.928Z,25.91
2022-07-31T16:15:29.461Z,26.00
2022-07-31T16:17:56.110Z,26.01
2022-07-31T16:20:26.433Z,26.00
2022-07-31T16:22:56.421Z,26.00
2022-07-31T16:25:24.570Z,26.00
2022-07-31T16:27:51.600Z,25.96
2022-07-31T16:30:18.204Z,25.99
2022-07-31T16:32:44.900Z,26.00
2022-07-31T16:35:12.358Z,26.00
2022-07-31T16:37:50.009Z,26.00
2022-07-31T16:40:28.556Z,25.96
2022-07-31T16:42:56.389Z,25.95
2022-07-31T16:45:23.416Z,26.00
2022-07-31T16:47:51.729Z,25.99
2022-07-31T16:50:18.697Z,25.90
2022-07-31T16:55:01.578Z,25.99
2022-07-31T16:57:28.658Z,25.98
2022-07-31T16:59:57.281Z,25.99
2022-07-31T17:02:24.537Z,25.99
2022-07-31T17:04:54.048Z,25.99
2022-07-31T17:07:20.815Z,25.99
2022-07-31T17:09:47.466Z,25.98
2022-07-31T17:12:14.122Z,25.98
2022-07-31T17:14:43.350Z,25.98
2022-07-31T17:17:10.353Z,25.97
2022-07-31T17:19:45.864Z,25.96
2022-07-31T17:22:17.946Z,25.97
2022-07-31T17:24:50.690Z,25.97
2022-07-31T17:27:18.850Z,25.95
2022-07-31T17:29:45.690Z,25.96
2022-07-31T17:32:12.528Z,25.95
2022-07-31T17:34:40.413Z,25.96
2022-07-31T17:37:08.783Z,25.86
2022-07-31T17:39:36.225Z,25.96
2022-07-31T17:42:03.046Z,25.95
2022-07-31T17:44:29.987Z,25.91
2022-07-31T17:46:57.803Z,25.96
2022-07-31T17:49:30.234Z,25.95
2022-07-31T17:51:58.947Z,25.94
2022-07-31T17:54:28.712Z,25.92
2022-07-31T17:56:55.333Z,25.95
2022-07-31T17:59:23.128Z,25.94
2022-07-31T18:01:51.598Z,25.94
2022-07-31T18:04:30.121Z,25.93
2022-07-31T18:06:58.775Z,25.94
2022-07-31T18:09:26.474Z,25.92
2022-07-31T18:11:54.313Z,25.94
2022-07-31T18:14:21.309Z,25.94
2022-07-31T18:16:51.986Z,25.94
2022-07-31T18:19:19.099Z,25.84
2022-07-31T18:21:45.705Z,25.93
2022-07-31T18:24:12.269Z,25.92
2022-07-31T18:26:41.536Z,25.93
2022-07-31T18:29:08.071Z,25.93
2022-07-31T18:31:37.198Z,25.93
2022-07-31T18:34:05.075Z,25.92
2022-07-31T18:36:35.093Z,25.91
2022-07-31T18:39:03.225Z,25.90
2022-07-31T18:41:33.683Z,25.91
2022-07-31T18:44:01.258Z,25.91
2022-07-31T18:48:46.171Z,25.90
2022-07-31T18:51:13.240Z,25.91
2022-07-31T18:53:40.023Z,25.91
2022-07-31T18:56:06.800Z,25.88
2022-07-31T18:58:33.413Z,25.89
2022-07-31T19:01:00.691Z,25.89
2022-07-31T19:03:29.690Z,25.87
2022-07-31T19:05:56.594Z,25.89
2022-07-31T19:08:23.213Z,25.88
2022-07-31T19:10:53.265Z,25.89
2022-07-31T19:13:23.821Z,25.88
2022-07-31T19:15:52.974Z,25.88
2022-07-31T19:18:28.277Z,25.87
2022-07-31T19:21:23.523Z,25.78
2022-07-31T19:23:47.152Z,25.87
2022-07-31T19:26:14.160Z,25.86
2022-07-31T19:28:43.784Z,25.86
2022-07-31T19:31:13.117Z,25.87
2022-07-31T19:33:40.835Z,25.85
2022-07-31T19:36:07.689Z,25.87
2022-07-31T19:38:36.059Z,25.86
2022-07-31T19:41:03.777Z,25.85
2022-07-31T19:43:31.031Z,25.86
2022-07-31T19:46:10.530Z,25.85
2022-07-31T19:51:12.766Z,25.84
2022-07-31T19:53:40.039Z,25.76
2022-07-31T19:58:33.023Z,25.84
2022-07-31T20:00:59.675Z,25.83
2022-07-31T20:03:26.510Z,25.83
2022-07-31T20:05:53.312Z,25.83
2022-07-31T20:08:22.464Z,25.84
2022-07-31T20:10:49.361Z,25.84
2022-07-31T20:13:19.287Z,25.83
2022-07-31T20:15:52.475Z,25.83
2022-07-31T20:18:32.299Z,25.82
2022-07-31T20:21:10.096Z,25.83
2022-07-31T20:23:38.773Z,25.82
2022-07-31T20:26:06.902Z,25.82
2022-07-31T20:28:33.564Z,25.82
2022-07-31T20:31:02.605Z,25.82
2022-07-31T20:33:29.343Z,25.82
2022-07-31T20:35:55.898Z,25.82
2022-07-31T20:38:24.382Z,25.73
2022-07-31T20:40:55.589Z,25.79
2022-07-31T20:43:24.708Z,25.82
2022-07-31T20:45:52.248Z,25.81
2022-07-31T20:48:23.723Z,25.82
2022-07-31T20:50:50.736Z,25.82
2022-07-31T20:53:17.544Z,25.82
2022-07-31T20:55:49.641Z,25.82
2022-07-31T20:58:36.509Z,25.81
2022-07-31T21:01:03.491Z,25.81
2022-07-31T21:03:30.068Z,25.81
2022-07-31T21:05:56.782Z,25.81
2022-07-31T21:08:23.381Z,25.71
2022-07-31T21:10:50.068Z,25.81
2022-07-31T21:13:16.865Z,25.80
2022-07-31T21:15:45.292Z,25.81
2022-07-31T21:18:13.960Z,25.80
2022-07-31T21:20:50.928Z,25.76
2022-07-31T21:23:24.184Z,25.77
2022-07-31T21:25:56.585Z,25.80
2022-07-31T21:28:24.937Z,25.77
2022-07-31T21:30:56.054Z,25.79
2022-07-31T21:33:25.960Z,25.79
2022-07-31T21:35:53.149Z,25.79
2022-07-31T21:38:23.106Z,25.79
2022-07-31T21:40:50.382Z,25.79
2022-07-31T21:43:22.008Z,25.76
2022-07-31T21:45:56.091Z,25.80
2022-07-31T21:48:29.687Z,25.79
2022-07-31T21:50:56.478Z,25.78
2022-07-31T21:53:23.878Z,25.78
2022-07-31T21:55:51.094Z,25.79
2022-07-31T21:58:18.505Z,25.79
2022-07-31T22:00:45.323Z,25.79
2022-07-31T22:03:12.120Z,25.72
2022-07-31T22:05:57.284Z,25.78
2022-07-31T22:08:23.964Z,25.77
2022-07-31T22:10:52.195Z,25.78
2022-07-31T22:13:20.170Z,25.77
2022-07-31T22:15:52.564Z,25.77
2022-07-31T22:18:33.191Z,25.77
2022-07-31T22:21:00.719Z,25.76
2022-07-31T22:23:28.303Z,25.77
2022-07-31T22:25:55.352Z,25.77
2022-07-31T22:28:23.102Z,25.77
2022-07-31T22:30:51.059Z,25.77
2022-07-31T22:33:18.585Z,25.75
2022-07-31T22:35:45.528Z,25.77
2022-07-31T22:38:27.124Z,25.75
2022-07-31T22:40:53.755Z,25.76
2022-07-31T22:44:10.074Z,25.76
2022-07-31T22:46:08.885Z,25.76
2022-07-31T22:48:36.663Z,25.75
2022-07-31T22:51:04.172Z,25.70
2022-07-31T22:53:30.767Z,25.75
2022-07-31T22:55:57.407Z,25.75
2022-07-31T22:58:23.932Z,25.74
2022-07-31T23:00:50.734Z,25.74
2022-07-31T23:03:17.336Z,25.75
2022-07-31T23:08:09.150Z,25.74
2022-07-31T23:10:35.845Z,25.74
2022-07-31T23:13:02.413Z,25.73
2022-07-31T23:15:29.040Z,25.72
2022-07-31T23:17:55.587Z,25.74
2022-07-31T23:20:22.222Z,25.73
2022-07-31T23:22:50.417Z,25.73
2022-07-31T23:25:20.324Z,25.73
2022-07-31T23:27:46.992Z,25.73
2022-07-31T23:30:13.726Z,25.73
2022-07-31T23:32:40.358Z,25.73
2022-07-31T23:35:07.474Z,25.72
2022-07-31T23:37:34.099Z,25.73
2022-07-31T23:40:00.705Z,25.72
2022-07-31T23:42:39.523Z,25.73
2022-07-31T23:45:12.314Z,25.73
2022-07-31T23:47:44.493Z,25.64
2022-07-31T23:52:26.404Z,25.71
2022-07-31T23:54:53.047Z,25.71
2022-07-31T23:57:19.743Z,25.71
2022-07-31T23:59:46.559Z,25.68
